sensor_id;sensor_type;location;lat;lon;timestamp;pressure;altitude;pressure_sealevel;temperature;humidity
13594;BME280;6449;47.666;9.160;2023-04-21T00:02:32;96520.22;;;5.99;100.00
13594;BME280;6449;47.666;9.160;2023-04-21T00:07:32;96514.28;;;5.97;100.00
13594;BME280;6449;47.666;9.160;2023-04-21T00:12:26;96509.06;;;5.97;100.00
13594;BME280;6449;47.666;9.160;2023-04-21T00:17:19;96503.88;;;5.97;100.00
13594;BME280;6449;47.666;9.160;2023-04-21T00:22:12;96509.63;;;6.02;100.00
13594;BME280;6449;47.666;9.160;2023-04-21T00:27:07;96500.25;;;6.12;100.00
13594;BME280;6449;47.666;9.160;2023-04-21T00:32:02;96479.25;;;6.15;100.00
13594;BME280;6449;47.666;9.160;2023-04-21T00:36:59;96469.50;;;6.19;100.00
13594;BME280;6449;47.666;9.160;2023-04-21T00:41:52;96455.66;;;6.18;100.00
13594;BME280;6449;47.666;9.160;2023-04-21T00:46:47;96450.81;;;6.12;100.00
13594;BME280;6449;47.666;9.160;2023-04-21T00:51:41;96470.50;;;6.16;100.00
13594;BME280;6449;47.666;9.160;2023-04-21T00:56:35;96481.97;;;6.14;100.00
13594;BME280;6449;47.666;9.160;2023-04-21T01:01:29;96473.13;;;6.16;100.00
13594;BME280;6449;47.666;9.160;2023-04-21T01:06:29;96477.69;;;6.13;100.00
13594;BME280;6449;47.666;9.160;2023-04-21T01:11:24;96470.81;;;6.12;100.00
13594;BME280;6449;47.666;9.160;2023-04-21T01:16:18;96470.78;;;5.99;100.00
13594;BME280;6449;47.666;9.160;2023-04-21T01:21:12;96472.78;;;6.08;100.00
13594;BME280;6449;47.666;9.160;2023-04-21T01:26:07;96481.56;;;6.20;100.00
13594;BME280;6449;47.666;9.160;2023-04-21T01:31:00;96482.94;;;6.25;100.00
13594;BME280;6449;47.666;9.160;2023-04-21T01:48:58;96488.44;;;6.21;100.00
13594;BME280;6449;47.666;9.160;2023-04-21T01:53:51;96488.53;;;6.19;100.00
13594;BME280;6449;47.666;9.160;2023-04-21T01:58:45;96485.13;;;6.32;100.00
13594;BME280;6449;47.666;9.160;2023-04-21T02:03:38;96491.28;;;6.30;100.00
13594;BME280;6449;47.666;9.160;2023-04-21T02:08:33;96478.22;;;6.18;100.00
13594;BME280;6449;47.666;9.160;2023-04-21T02:13:27;96483.50;;;6.03;100.00
13594;BME280;6449;47.666;9.160;2023-04-21T02:18:20;96485.81;;;6.08;100.00
13594;BME280;6449;47.666;9.160;2023-04-21T02:23:14;96468.44;;;6.21;100.00
13594;BME280;6449;47.666;9.160;2023-04-21T02:28:08;96455.16;;;5.99;100.00
13594;BME280;6449;47.666;9.160;2023-04-21T02:33:02;96463.41;;;6.06;100.00
13594;BME280;6449;47.666;9.160;2023-04-21T02:37:55;96463.53;;;6.17;100.00
13594;BME280;6449;47.666;9.160;2023-04-21T02:42:49;96455.94;;;6.14;100.00
13594;BME280;6449;47.666;9.160;2023-04-21T02:47:43;96462.16;;;6.11;100.00
13594;BME280;6449;47.666;9.160;2023-04-21T02:52:37;96474.56;;;6.08;100.00
13594;BME280;6449;47.666;9.160;2023-04-21T02:57:30;96483.19;;;6.08;100.00
13594;BME280;6449;47.666;9.160;2023-04-21T03:02:24;96474.31;;;5.98;100.00
13594;BME280;6449;47.666;9.160;2023-04-21T03:07:19;96483.25;;;5.94;100.00
13594;BME280;6449;47.666;9.160;2023-04-21T03:12:12;96481.84;;;5.88;100.00
13594;BME280;6449;47.666;9.160;2023-04-21T03:17:05;96485.13;;;5.92;100.00
13594;BME280;6449;47.666;9.160;2023-04-21T03:21:59;96476.91;;;5.98;100.00
13594;BME280;6449;47.666;9.160;2023-04-21T03:26:54;96469.72;;;6.01;100.00
13594;BME280;6449;47.666;9.160;2023-04-21T03:31:48;96466.25;;;6.15;100.00
13594;BME280;6449;47.666;9.160;2023-04-21T03:36:41;96461.56;;;6.08;100.00
13594;BME280;6449;47.666;9.160;2023-04-21T03:41:35;96455.94;;;6.14;100.00
13594;BME280;6449;47.666;9.160;2023-04-21T03:46:29;96444.91;;;6.23;100.00
13594;BME280;6449;47.666;9.160;2023-04-21T03:51:23;96443.59;;;6.43;100.00
13594;BME280;6449;47.666;9.160;2023-04-21T03:56:18;96450.28;;;6.34;100.00
13594;BME280;6449;47.666;9.160;2023-04-21T04:01:11;96462.03;;;6.40;100.00
13594;BME280;6449;47.666;9.160;2023-04-21T04:06:06;96462.41;;;6.34;100.00
13594;BME280;6449;47.666;9.160;2023-04-21T04:11:03;96450.47;;;6.44;100.00
13594;BME280;6449;47.666;9.160;2023-04-21T04:15:57;96444.66;;;6.53;100.00
13594;BME280;6449;47.666;9.160;2023-04-21T04:20:50;96442.28;;;6.50;100.00
13594;BME280;6449;47.666;9.160;2023-04-21T04:25:45;96437.38;;;6.58;100.00
13594;BME280;6449;47.666;9.160;2023-04-21T04:30:39;96430.69;;;6.41;100.00
13594;BME280;6449;47.666;9.160;2023-04-21T04:35:33;96418.50;;;6.42;100.00
13594;BME280;6449;47.666;9.160;2023-04-21T04:40:27;96419.63;;;6.38;100.00
13594;BME280;6449;47.666;9.160;2023-04-21T04:45:23;96412.88;;;6.48;100.00
13594;BME280;6449;47.666;9.160;2023-04-21T04:50:17;96417.97;;;6.49;100.00
13594;BME280;6449;47.666;9.160;2023-04-21T04:55:11;96439.13;;;6.45;100.00
13594;BME280;6449;47.666;9.160;2023-04-21T05:00:06;96443.19;;;6.49;100.00
13594;BME280;6449;47.666;9.160;2023-04-21T05:05:05;96437.78;;;6.52;100.00
13594;BME280;6449;47.666;9.160;2023-04-21T05:09:59;96447.78;;;6.45;100.00
13594;BME280;6449;47.666;9.160;2023-04-21T05:14:55;96452.75;;;6.36;100.00
13594;BME280;6449;47.666;9.160;2023-04-21T05:19:48;96438.63;;;6.40;100.00
13594;BME280;6449;47.666;9.160;2023-04-21T05:24:43;96440.47;;;6.38;100.00
13594;BME280;6449;47.666;9.160;2023-04-21T05:29:37;96445.06;;;6.47;100.00
13594;BME280;6449;47.666;9.160;2023-04-21T05:34:30;96445.91;;;6.60;100.00
13594;BME280;6449;47.666;9.160;2023-04-21T05:39:23;96438.19;;;6.59;100.00
13594;BME280;6449;47.666;9.160;2023-04-21T05:44:18;96453.19;;;6.55;100.00
13594;BME280;6449;47.666;9.160;2023-04-21T05:49:12;96455.72;;;6.56;100.00
13594;BME280;6449;47.666;9.160;2023-04-21T05:54:05;96450.09;;;6.63;100.00
13594;BME280;6449;47.666;9.160;2023-04-21T05:58:59;96453.94;;;6.70;100.00
13594;BME280;6449;47.666;9.160;2023-04-21T06:03:54;96453.84;;;6.71;100.00
13594;BME280;6449;47.666;9.160;2023-04-21T06:13:54;96458.63;;;6.77;100.00
13594;BME280;6449;47.666;9.160;2023-04-21T06:18:49;96459.06;;;6.71;100.00
13594;BME280;6449;47.666;9.160;2023-04-21T06:23:44;96455.50;;;6.85;100.00
13594;BME280;6449;47.666;9.160;2023-04-21T06:28:37;96456.94;;;7.02;100.00
13594;BME280;6449;47.666;9.160;2023-04-21T06:33:31;96458.50;;;6.92;100.00
13594;BME280;6449;47.666;9.160;2023-04-21T06:38:25;96451.84;;;7.00;100.00
13594;BME280;6449;47.666;9.160;2023-04-21T06:43:20;96449.13;;;7.15;100.00
13594;BME280;6449;47.666;9.160;2023-04-21T06:48:13;96462.94;;;7.53;100.00
13594;BME280;6449;47.666;9.160;2023-04-21T06:53:09;96471.47;;;7.55;100.00
13594;BME280;6449;47.666;9.160;2023-04-21T06:58:03;96476.16;;;7.63;100.00
13594;BME280;6449;47.666;9.160;2023-04-21T07:18:18;96455.50;;;8.08;100.00
13594;BME280;6449;47.666;9.160;2023-04-21T07:23:12;96462.56;;;8.19;100.00
13594;BME280;6449;47.666;9.160;2023-04-21T07:28:05;96486.44;;;8.25;100.00
13594;BME280;6449;47.666;9.160;2023-04-21T07:32:59;96483.63;;;8.52;100.00
13594;BME280;6449;47.666;9.160;2023-04-21T07:37:54;96489.63;;;8.77;100.00
13594;BME280;6449;47.666;9.160;2023-04-21T07:42:47;96493.16;;;9.11;100.00
13594;BME280;6449;47.666;9.160;2023-04-21T07:47:41;96490.41;;;9.46;100.00
13594;BME280;6449;47.666;9.160;2023-04-21T07:52:34;96497.78;;;9.52;100.00
13594;BME280;6449;47.666;9.160;2023-04-21T07:57:29;96507.41;;;9.52;100.00
13594;BME280;6449;47.666;9.160;2023-04-21T08:02:25;96501.22;;;9.86;100.00
13594;BME280;6449;47.666;9.160;2023-04-21T08:07:19;96505.78;;;10.05;100.00
13594;BME280;6449;47.666;9.160;2023-04-21T08:12:14;96508.97;;;10.31;100.00
13594;BME280;6449;47.666;9.160;2023-04-21T08:17:08;96517.19;;;10.27;100.00
13594;BME280;6449;47.666;9.160;2023-04-21T08:42:33;96502.22;;;11.33;100.00
13594;BME280;6449;47.666;9.160;2023-04-21T08:47:28;96498.78;;;11.63;100.00
13594;BME280;6449;47.666;9.160;2023-04-21T08:52:22;96496.53;;;11.59;100.00
13594;BME280;6449;47.666;9.160;2023-04-21T08:57:21;96503.53;;;11.79;100.00
13594;BME280;6449;47.666;9.160;2023-04-21T09:02:17;96501.00;;;12.08;100.00
13594;BME280;6449;47.666;9.160;2023-04-21T09:07:29;96511.50;;;12.08;100.00
13594;BME280;6449;47.666;9.160;2023-04-21T09:12:23;96504.34;;;12.20;100.00
13594;BME280;6449;47.666;9.160;2023-04-21T09:17:22;96500.34;;;12.45;100.00
13594;BME280;6449;47.666;9.160;2023-04-21T09:22:20;96498.13;;;12.21;100.00
13594;BME280;6449;47.666;9.160;2023-04-21T09:27:20;96492.59;;;12.43;100.00
13594;BME280;6449;47.666;9.160;2023-04-21T09:32:19;96487.47;;;12.71;100.00
13594;BME280;6449;47.666;9.160;2023-04-21T09:37:16;96487.72;;;12.87;100.00
13594;BME280;6449;47.666;9.160;2023-04-21T09:42:12;96487.41;;;13.09;100.00
13594;BME280;6449;47.666;9.160;2023-04-21T09:47:10;96491.34;;;12.86;100.00
13594;BME280;6449;47.666;9.160;2023-04-21T09:52:08;96490.50;;;12.85;100.00
13594;BME280;6449;47.666;9.160;2023-04-21T10:03:27;96484.53;;;13.22;100.00
13594;BME280;6449;47.666;9.160;2023-04-21T10:08:26;96476.53;;;12.95;100.00
13594;BME280;6449;47.666;9.160;2023-04-21T10:13:23;96463.50;;;12.93;100.00
13594;BME280;6449;47.666;9.160;2023-04-21T10:18:30;96470.94;;;13.27;100.00
13594;BME280;6449;47.666;9.160;2023-04-21T10:23:30;96465.38;;;13.57;100.00
13594;BME280;6449;47.666;9.160;2023-04-21T10:28:43;96452.22;;;13.57;100.00
13594;BME280;6449;47.666;9.160;2023-04-21T10:33:42;96449.34;;;13.78;100.00
13594;BME280;6449;47.666;9.160;2023-04-21T10:39:00;96444.34;;;14.03;100.00
13594;BME280;6449;47.666;9.160;2023-04-21T10:43:58;96434.03;;;14.09;100.00
13594;BME280;6449;47.666;9.160;2023-04-21T10:48:52;96432.44;;;14.16;100.00
13594;BME280;6449;47.666;9.160;2023-04-21T10:53:48;96442.56;;;14.39;100.00
13594;BME280;6449;47.666;9.160;2023-04-21T10:58:44;96444.59;;;14.63;100.00
13594;BME280;6449;47.666;9.160;2023-04-21T11:03:42;96434.97;;;14.72;100.00
13594;BME280;6449;47.666;9.160;2023-04-21T11:08:54;96414.34;;;14.75;100.00
13594;BME280;6449;47.666;9.160;2023-04-21T11:13:51;96408.41;;;14.73;100.00
13594;BME280;6449;47.666;9.160;2023-04-21T11:18:47;96421.97;;;14.78;100.00
13594;BME280;6449;47.666;9.160;2023-04-21T11:23:47;96412.44;;;15.11;100.00
13594;BME280;6449;47.666;9.160;2023-04-21T11:28:46;96408.34;;;14.91;100.00
13594;BME280;6449;47.666;9.160;2023-04-21T11:33:42;96408.16;;;15.10;100.00
13594;BME280;6449;47.666;9.160;2023-04-21T11:38:40;96401.97;;;15.02;100.00
13594;BME280;6449;47.666;9.160;2023-04-21T11:49:52;96398.13;;;15.14;100.00
13594;BME280;6449;47.666;9.160;2023-04-21T11:54:53;96394.31;;;15.16;100.00
13594;BME280;6449;47.666;9.160;2023-04-21T11:59:48;96374.81;;;15.09;100.00
13594;BME280;6449;47.666;9.160;2023-04-21T12:05:01;96386.75;;;15.22;100.00
13594;BME280;6449;47.666;9.160;2023-04-21T12:09:55;96383.47;;;15.19;100.00
13594;BME280;6449;47.666;9.160;2023-04-21T12:14:50;96379.53;;;15.24;100.00
13594;BME280;6449;47.666;9.160;2023-04-21T12:19:44;96398.59;;;15.17;100.00
13594;BME280;6449;47.666;9.160;2023-04-21T12:24:41;96399.56;;;15.08;100.00
13594;BME280;6449;47.666;9.160;2023-04-21T12:29:39;96391.13;;;15.05;100.00
13594;BME280;6449;47.666;9.160;2023-04-21T12:34:36;96389.19;;;14.81;100.00
13594;BME280;6449;47.666;9.160;2023-04-21T12:39:30;96399.34;;;15.02;100.00
13594;BME280;6449;47.666;9.160;2023-04-21T12:44:25;96397.91;;;15.41;100.00
13594;BME280;6449;47.666;9.160;2023-04-21T12:49:18;96397.09;;;15.41;100.00
13594;BME280;6449;47.666;9.160;2023-04-21T12:54:12;96400.72;;;15.40;100.00
13594;BME280;6449;47.666;9.160;2023-04-21T12:59:06;96394.44;;;15.41;100.00
13594;BME280;6449;47.666;9.160;2023-04-21T13:04:02;96393.63;;;15.49;100.00
13594;BME280;6449;47.666;9.160;2023-04-21T13:08:59;96390.34;;;15.55;100.00
13594;BME280;6449;47.666;9.160;2023-04-21T13:13:56;96380.03;;;15.69;100.00
13594;BME280;6449;47.666;9.160;2023-04-21T13:18:49;96379.09;;;15.79;100.00
13594;BME280;6449;47.666;9.160;2023-04-21T13:23:44;96377.22;;;15.71;100.00
13594;BME280;6449;47.666;9.160;2023-04-21T13:28:43;96390.78;;;15.68;100.00
13594;BME280;6449;47.666;9.160;2023-04-21T13:33:37;96390.16;;;15.82;100.00
13594;BME280;6449;47.666;9.160;2023-04-21T13:38:38;96393.94;;;15.80;100.00
13594;BME280;6449;47.666;9.160;2023-04-21T13:43:35;96396.25;;;15.75;100.00
13594;BME280;6449;47.666;9.160;2023-04-21T13:48:28;96380.56;;;15.81;100.00
13594;BME280;6449;47.666;9.160;2023-04-21T13:53:21;96374.44;;;15.73;100.00
13594;BME280;6449;47.666;9.160;2023-04-21T13:58:18;96366.66;;;15.71;100.00
13594;BME280;6449;47.666;9.160;2023-04-21T14:03:16;96358.72;;;15.71;100.00
13594;BME280;6449;47.666;9.160;2023-04-21T14:08:12;96366.75;;;15.53;100.00
13594;BME280;6449;47.666;9.160;2023-04-21T14:13:08;96380.28;;;15.50;100.00
13594;BME280;6449;47.666;9.160;2023-04-21T14:18:15;96383.84;;;15.67;100.00
13594;BME280;6449;47.666;9.160;2023-04-21T14:23:09;96369.75;;;16.25;100.00
13594;BME280;6449;47.666;9.160;2023-04-21T14:28:04;96365.75;;;16.62;100.00
13594;BME280;6449;47.666;9.160;2023-04-21T14:33:01;96366.44;;;16.72;100.00
13594;BME280;6449;47.666;9.160;2023-04-21T14:37:57;96359.66;;;16.53;100.00
13594;BME280;6449;47.666;9.160;2023-04-21T14:42:50;96376.34;;;16.45;100.00
13594;BME280;6449;47.666;9.160;2023-04-21T14:47:44;96363.59;;;16.16;100.00
13594;BME280;6449;47.666;9.160;2023-04-21T14:52:37;96363.72;;;15.90;100.00
13594;BME280;6449;47.666;9.160;2023-04-21T14:57:33;96350.78;;;15.71;100.00
13594;BME280;6449;47.666;9.160;2023-04-21T15:02:26;96351.53;;;15.47;100.00
13594;BME280;6449;47.666;9.160;2023-04-21T15:07:20;96340.75;;;15.32;100.00
13594;BME280;6449;47.666;9.160;2023-04-21T15:12:16;96344.84;;;15.18;100.00
13594;BME280;6449;47.666;9.160;2023-04-21T15:17:11;96335.13;;;14.93;100.00
13594;BME280;6449;47.666;9.160;2023-04-21T15:22:04;96352.72;;;14.84;100.00
13594;BME280;6449;47.666;9.160;2023-04-21T15:26:58;96344.53;;;14.96;100.00
13594;BME280;6449;47.666;9.160;2023-04-21T15:31:52;96344.13;;;15.08;100.00
13594;BME280;6449;47.666;9.160;2023-04-21T15:36:49;96349.53;;;15.07;100.00
13594;BME280;6449;47.666;9.160;2023-04-21T15:41:43;96362.63;;;15.08;100.00
13594;BME280;6449;47.666;9.160;2023-04-21T15:46:36;96346.72;;;15.00;100.00
13594;BME280;6449;47.666;9.160;2023-04-21T15:51:30;96350.19;;;15.01;100.00
13594;BME280;6449;47.666;9.160;2023-04-21T15:56:28;96344.41;;;14.97;100.00
13594;BME280;6449;47.666;9.160;2023-04-21T16:01:21;96335.78;;;14.87;100.00
13594;BME280;6449;47.666;9.160;2023-04-21T16:06:16;96346.53;;;14.93;100.00
13594;BME280;6449;47.666;9.160;2023-04-21T16:11:09;96339.38;;;14.86;100.00
13594;BME280;6449;47.666;9.160;2023-04-21T16:16:05;96343.53;;;14.88;100.00
13594;BME280;6449;47.666;9.160;2023-04-21T16:21:00;96335.69;;;14.71;100.00
13594;BME280;6449;47.666;9.160;2023-04-21T16:26:08;96342.59;;;14.72;100.00
13594;BME280;6449;47.666;9.160;2023-04-21T16:31:02;96344.69;;;14.60;100.00
13594;BME280;6449;47.666;9.160;2023-04-21T16:35:56;96352.44;;;14.61;100.00
13594;BME280;6449;47.666;9.160;2023-04-21T16:40:50;96338.03;;;14.38;100.00
13594;BME280;6449;47.666;9.160;2023-04-21T16:45:43;96342.91;;;14.25;100.00
13594;BME280;6449;47.666;9.160;2023-04-21T16:50:37;96358.13;;;14.13;100.00
13594;BME280;6449;47.666;9.160;2023-04-21T16:55:32;96353.97;;;14.10;100.00
13594;BME280;6449;47.666;9.160;2023-04-21T17:00:25;96351.78;;;14.06;100.00
13594;BME280;6449;47.666;9.160;2023-04-21T17:05:21;96361.34;;;13.89;100.00
13594;BME280;6449;47.666;9.160;2023-04-21T17:10:15;96356.47;;;13.76;100.00
13594;BME280;6449;47.666;9.160;2023-04-21T17:15:12;96344.63;;;13.62;100.00
13594;BME280;6449;47.666;9.160;2023-04-21T17:20:09;96338.53;;;13.62;100.00
13594;BME280;6449;47.666;9.160;2023-04-21T17:25:04;96331.91;;;13.58;100.00
13594;BME280;6449;47.666;9.160;2023-04-21T17:29:57;96330.69;;;13.52;100.00
13594;BME280;6449;47.666;9.160;2023-04-21T17:34:52;96328.38;;;13.49;100.00
13594;BME280;6449;47.666;9.160;2023-04-21T17:39:48;96329.25;;;13.40;100.00
13594;BME280;6449;47.666;9.160;2023-04-21T17:44:44;96331.34;;;13.36;100.00
13594;BME280;6449;47.666;9.160;2023-04-21T17:49:47;96323.75;;;13.33;100.00
13594;BME280;6449;47.666;9.160;2023-04-21T17:54:50;96320.19;;;13.25;100.00
13594;BME280;6449;47.666;9.160;2023-04-21T17:59:44;96315.91;;;13.24;100.00
13594;BME280;6449;47.666;9.160;2023-04-21T18:04:37;96322.72;;;13.17;100.00
13594;BME280;6449;47.666;9.160;2023-04-21T18:09:31;96316.06;;;13.13;100.00
13594;BME280;6449;47.666;9.160;2023-04-21T18:14:26;96320.94;;;13.07;100.00
13594;BME280;6449;47.666;9.160;2023-04-21T18:19:21;96319.56;;;13.03;100.00
13594;BME280;6449;47.666;9.160;2023-04-21T18:24:14;96311.97;;;13.00;100.00
13594;BME280;6449;47.666;9.160;2023-04-21T18:29:08;96310.88;;;12.93;100.00
13594;BME280;6449;47.666;9.160;2023-04-21T18:34:03;96311.03;;;12.92;100.00
13594;BME280;6449;47.666;9.160;2023-04-21T18:38:57;96312.28;;;12.88;100.00
13594;BME280;6449;47.666;9.160;2023-04-21T18:43:50;96311.63;;;12.85;100.00
13594;BME280;6449;47.666;9.160;2023-04-21T18:48:43;96311.63;;;12.85;100.00
13594;BME280;6449;47.666;9.160;2023-04-21T18:53:38;96331.72;;;12.77;100.00
13594;BME280;6449;47.666;9.160;2023-04-21T18:58:33;96327.47;;;12.66;100.00
13594;BME280;6449;47.666;9.160;2023-04-21T19:03:26;96334.69;;;12.64;100.00
13594;BME280;6449;47.666;9.160;2023-04-21T19:08:20;96338.41;;;12.62;100.00
13594;BME280;6449;47.666;9.160;2023-04-21T19:13:34;96333.44;;;12.58;100.00
13594;BME280;6449;47.666;9.160;2023-04-21T19:18:27;96339.44;;;12.41;100.00
13594;BME280;6449;47.666;9.160;2023-04-21T19:23:20;96348.59;;;12.37;100.00
13594;BME280;6449;47.666;9.160;2023-04-21T19:28:14;96343.31;;;12.37;100.00
13594;BME280;6449;47.666;9.160;2023-04-21T19:33:10;96345.41;;;12.33;100.00
13594;BME280;6449;47.666;9.160;2023-04-21T19:38:09;96347.19;;;12.33;100.00
13594;BME280;6449;47.666;9.160;2023-04-21T19:43:56;96354.41;;;12.31;100.00
13594;BME280;6449;47.666;9.160;2023-04-21T19:49:10;96344.31;;;12.26;100.00
13594;BME280;6449;47.666;9.160;2023-04-21T19:54:26;96356.78;;;12.15;100.00
13594;BME280;6449;47.666;9.160;2023-04-21T20:00:03;96354.00;;;12.16;100.00
13594;BME280;6449;47.666;9.160;2023-04-21T20:05:23;96357.88;;;12.22;100.00
13594;BME280;6449;47.666;9.160;2023-04-21T20:10:40;96361.72;;;12.18;100.00
13594;BME280;6449;47.666;9.160;2023-04-21T20:15:56;96364.09;;;12.21;100.00
13594;BME280;6449;47.666;9.160;2023-04-21T20:21:14;96368.38;;;12.02;100.00
13594;BME280;6449;47.666;9.160;2023-04-21T20:26:49;96352.19;;;11.97;100.00
13594;BME280;6449;47.666;9.160;2023-04-21T20:37:49;96366.69;;;11.82;100.00
13594;BME280;6449;47.666;9.160;2023-04-21T20:42:56;96358.94;;;11.80;100.00
13594;BME280;6449;47.666;9.160;2023-04-21T20:47:54;96363.34;;;11.80;100.00
13594;BME280;6449;47.666;9.160;2023-04-21T20:52:59;96373.84;;;11.70;100.00
13594;BME280;6449;47.666;9.160;2023-04-21T20:57:55;96374.25;;;11.56;100.00
13594;BME280;6449;47.666;9.160;2023-04-21T21:02:53;96384.44;;;11.49;100.00
13594;BME280;6449;47.666;9.160;2023-04-21T21:07:47;96373.16;;;11.59;100.00
13594;BME280;6449;47.666;9.160;2023-04-21T21:12:41;96382.97;;;11.66;100.00
13594;BME280;6449;47.666;9.160;2023-04-21T21:17:36;96380.22;;;11.68;100.00
13594;BME280;6449;47.666;9.160;2023-04-21T21:22:30;96379.38;;;11.67;100.00
13594;BME280;6449;47.666;9.160;2023-04-21T21:27:23;96389.50;;;11.72;100.00
13594;BME280;6449;47.666;9.160;2023-04-21T21:32:18;96391.41;;;11.70;100.00
13594;BME280;6449;47.666;9.160;2023-04-21T21:37:11;96396.81;;;11.68;100.00
13594;BME280;6449;47.666;9.160;2023-04-21T21:42:05;96392.09;;;11.62;100.00
13594;BME280;6449;47.666;9.160;2023-04-21T21:46:59;96386.13;;;11.60;100.00
13594;BME280;6449;47.666;9.160;2023-04-21T21:51:53;96397.59;;;11.59;100.00
13594;BME280;6449;47.666;9.160;2023-04-21T21:56:47;96388.47;;;11.53;100.00
13594;BME280;6449;47.666;9.160;2023-04-21T22:01:41;96389.13;;;11.36;100.00
13594;BME280;6449;47.666;9.160;2023-04-21T22:06:34;96377.50;;;11.39;100.00
13594;BME280;6449;47.666;9.160;2023-04-21T22:11:30;96388.94;;;11.28;100.00
13594;BME280;6449;47.666;9.160;2023-04-21T22:16:24;96390.19;;;11.24;100.00
13594;BME280;6449;47.666;9.160;2023-04-21T22:21:17;96384.66;;;11.27;100.00
13594;BME280;6449;47.666;9.160;2023-04-21T22:26:11;96379.59;;;11.35;100.00
13594;BME280;6449;47.666;9.160;2023-04-21T22:31:06;96391.97;;;11.23;100.00
13594;BME280;6449;47.666;9.160;2023-04-21T22:35:59;96389.22;;;11.25;100.00
13594;BME280;6449;47.666;9.160;2023-04-21T22:40:53;96381.97;;;11.08;100.00
13594;BME280;6449;47.666;9.160;2023-04-21T22:45:46;96382.50;;;11.01;100.00
13594;BME280;6449;47.666;9.160;2023-04-21T22:50:41;96383.75;;;11.07;100.00
13594;BME280;6449;47.666;9.160;2023-04-21T22:55:35;96384.13;;;10.93;100.00
13594;BME280;6449;47.666;9.160;2023-04-21T23:00:29;96383.41;;;10.91;100.00
13594;BME280;6449;47.666;9.160;2023-04-21T23:05:22;96381.47;;;10.83;100.00
13594;BME280;6449;47.666;9.160;2023-04-21T23:10:17;96370.44;;;10.89;100.00
13594;BME280;6449;47.666;9.160;2023-04-21T23:15:11;96368.25;;;10.94;100.00
13594;BME280;6449;47.666;9.160;2023-04-21T23:20:06;96376.91;;;10.85;100.00
13594;BME280;6449;47.666;9.160;2023-04-21T23:25:00;96371.94;;;10.82;100.00
13594;BME280;6449;47.666;9.160;2023-04-21T23:29:57;96373.84;;;10.80;100.00
13594;BME280;6449;47.666;9.160;2023-04-21T23:34:50;96379.59;;;10.74;100.00
13594;BME280;6449;47.666;9.160;2023-04-21T23:39:44;96376.41;;;10.70;100.00
13594;BME280;6449;47.666;9.160;2023-04-21T23:44:37;96376.09;;;10.64;100.00
13594;BME280;6449;47.666;9.160;2023-04-21T23:49:32;96373.75;;;10.61;100.00
13594;BME280;6449;47.666;9.160;2023-04-21T23:54:29;96376.63;;;10.58;100.00
13594;BME280;6449;47.666;9.160;2023-04-21T23:59:25;96370.41;;;10.59;100.00
